Grandview, Missouri
Current Conditions -  °F | °C
As of 8:15 AM on Sunday 23 Nov 2014 (Local Time) from KOJC Reporting Station
Haze Haze  
Wind Chill: 53°   Ceiling: 400
Heat Index: 53°   Visibility: 2.5mi
Dew Point: 53°   Wind: 7mph
Humidity: 100%   Direction: 170°S
Pressure: 29.51"   Gusts: NA
Location:  38.89°N, 94.53°W
Report Text: KOJC 231415Z 17006KT 2 1/2SM BR OVC004 12/12 A2951 RMK AO2 P0001 T01170117
Loading
Personal Weather Stations






























Interactive Weather Map New forecast layout! Learn more

10-Day Weather Forecast

Advertisements
Track Severe Weather on mobile